sensor_id;sensor_type;location;lat;lon;timestamp;pressure;altitude;pressure_sealevel;temperature;humidity
81658;BME280;71057;51.436;6.768;2024-02-23T00:01:05;98537.28;;;4.64;100.00
81658;BME280;71057;51.436;6.768;2024-02-23T00:03:31;98549.59;;;4.65;100.00
81658;BME280;71057;51.436;6.768;2024-02-23T00:05:58;98547.41;;;4.62;100.00
81658;BME280;71057;51.436;6.768;2024-02-23T00:08:23;98571.69;;;4.60;100.00
81658;BME280;71057;51.436;6.768;2024-02-23T00:10:48;98565.44;;;4.54;100.00
81658;BME280;71057;51.436;6.768;2024-02-23T00:13:14;98570.31;;;4.57;100.00
81658;BME280;71057;51.436;6.768;2024-02-23T00:15:39;98564.31;;;4.50;100.00
81658;BME280;71057;51.436;6.768;2024-02-23T00:18:04;98574.81;;;4.40;100.00
81658;BME280;71057;51.436;6.768;2024-02-23T00:20:31;98583.41;;;4.42;100.00
81658;BME280;71057;51.436;6.768;2024-02-23T00:22:56;98573.88;;;4.46;100.00
81658;BME280;71057;51.436;6.768;2024-02-23T00:25:21;98588.47;;;4.55;100.00
81658;BME280;71057;51.436;6.768;2024-02-23T00:27:48;98595.97;;;4.58;100.00
81658;BME280;71057;51.436;6.768;2024-02-23T00:30:13;98600.81;;;4.62;100.00
81658;BME280;71057;51.436;6.768;2024-02-23T00:32:39;98592.97;;;4.72;100.00
81658;BME280;71057;51.436;6.768;2024-02-23T00:35:05;98613.63;;;4.76;100.00
81658;BME280;71057;51.436;6.768;2024-02-23T00:37:30;98612.34;;;4.79;100.00
81658;BME280;71057;51.436;6.768;2024-02-23T00:40:03;98629.75;;;4.81;100.00
81658;BME280;71057;51.436;6.768;2024-02-23T00:42:31;98633.06;;;4.88;100.00
81658;BME280;71057;51.436;6.768;2024-02-23T00:44:57;98617.53;;;4.85;100.00
81658;BME280;71057;51.436;6.768;2024-02-23T00:47:22;98628.28;;;4.91;100.00
81658;BME280;71057;51.436;6.768;2024-02-23T00:49:48;98632.34;;;4.93;100.00
81658;BME280;71057;51.436;6.768;2024-02-23T00:52:14;98637.84;;;4.86;100.00
81658;BME280;71057;51.436;6.768;2024-02-23T00:54:39;98638.66;;;4.87;100.00
81658;BME280;71057;51.436;6.768;2024-02-23T00:57:04;98659.56;;;4.90;100.00
81658;BME280;71057;51.436;6.768;2024-02-23T00:59:30;98651.22;;;4.86;100.00
81658;BME280;71057;51.436;6.768;2024-02-23T01:01:55;98667.25;;;4.86;100.00
81658;BME280;71057;51.436;6.768;2024-02-23T01:04:20;98661.81;;;4.81;100.00
81658;BME280;71057;51.436;6.768;2024-02-23T01:06:46;98652.75;;;4.82;100.00
81658;BME280;71057;51.436;6.768;2024-02-23T01:09:11;98665.78;;;4.79;100.00
81658;BME280;71057;51.436;6.768;2024-02-23T01:11:36;98672.50;;;4.81;100.00
81658;BME280;71057;51.436;6.768;2024-02-23T01:14:02;98672.34;;;4.88;100.00
81658;BME280;71057;51.436;6.768;2024-02-23T01:16:27;98672.91;;;4.90;100.00
81658;BME280;71057;51.436;6.768;2024-02-23T01:18:52;98681.50;;;4.92;100.00
81658;BME280;71057;51.436;6.768;2024-02-23T01:21:18;98673.34;;;4.99;100.00
81658;BME280;71057;51.436;6.768;2024-02-23T01:23:43;98670.41;;;5.00;100.00
81658;BME280;71057;51.436;6.768;2024-02-23T01:26:08;98674.25;;;5.04;100.00
81658;BME280;71057;51.436;6.768;2024-02-23T01:28:34;98682.81;;;5.06;100.00
81658;BME280;71057;51.436;6.768;2024-02-23T01:30:59;98684.84;;;4.99;100.00
81658;BME280;71057;51.436;6.768;2024-02-23T01:33:24;98680.13;;;4.90;100.00
81658;BME280;71057;51.436;6.768;2024-02-23T01:35:49;98687.44;;;4.94;100.00
81658;BME280;71057;51.436;6.768;2024-02-23T01:38:16;98691.63;;;4.90;100.00
81658;BME280;71057;51.436;6.768;2024-02-23T01:40:45;98691.81;;;4.83;100.00
81658;BME280;71057;51.436;6.768;2024-02-23T01:43:11;98686.03;;;4.75;100.00
81658;BME280;71057;51.436;6.768;2024-02-23T01:45:36;98697.84;;;4.79;100.00
81658;BME280;71057;51.436;6.768;2024-02-23T01:48:01;98689.50;;;4.75;100.00
81658;BME280;71057;51.436;6.768;2024-02-23T01:50:27;98693.06;;;4.81;100.00
81658;BME280;71057;51.436;6.768;2024-02-23T01:52:53;98695.28;;;4.84;100.00
81658;BME280;71057;51.436;6.768;2024-02-23T01:55:22;98693.63;;;4.83;100.00
81658;BME280;71057;51.436;6.768;2024-02-23T01:57:48;98689.75;;;4.91;100.00
81658;BME280;71057;51.436;6.768;2024-02-23T02:00:16;98707.94;;;5.05;100.00
81658;BME280;71057;51.436;6.768;2024-02-23T02:02:42;98706.91;;;5.23;100.00
81658;BME280;71057;51.436;6.768;2024-02-23T02:05:08;98711.50;;;5.28;100.00
81658;BME280;71057;51.436;6.768;2024-02-23T02:07:33;98701.94;;;5.32;100.00
81658;BME280;71057;51.436;6.768;2024-02-23T02:09:59;98710.59;;;5.39;100.00
81658;BME280;71057;51.436;6.768;2024-02-23T02:12:28;98725.13;;;5.43;100.00
81658;BME280;71057;51.436;6.768;2024-02-23T02:14:53;98731.19;;;5.38;100.00
81658;BME280;71057;51.436;6.768;2024-02-23T02:17:19;98714.84;;;5.35;100.00
81658;BME280;71057;51.436;6.768;2024-02-23T02:19:47;98722.44;;;5.43;100.00
81658;BME280;71057;51.436;6.768;2024-02-23T02:22:12;98714.84;;;5.35;100.00
81658;BME280;71057;51.436;6.768;2024-02-23T02:24:38;98717.41;;;5.30;100.00
81658;BME280;71057;51.436;6.768;2024-02-23T02:27:06;98738.19;;;5.23;100.00
81658;BME280;71057;51.436;6.768;2024-02-23T02:29:31;98739.22;;;5.22;100.00
81658;BME280;71057;51.436;6.768;2024-02-23T02:31:57;98743.34;;;5.12;100.00
81658;BME280;71057;51.436;6.768;2024-02-23T02:34:22;98732.31;;;5.09;100.00
81658;BME280;71057;51.436;6.768;2024-02-23T02:36:48;98767.47;;;5.01;100.00
81658;BME280;71057;51.436;6.768;2024-02-23T02:39:13;98719.03;;;4.97;100.00
81658;BME280;71057;51.436;6.768;2024-02-23T02:41:39;98730.19;;;4.94;100.00
81658;BME280;71057;51.436;6.768;2024-02-23T02:44:05;98738.06;;;5.01;100.00
81658;BME280;71057;51.436;6.768;2024-02-23T02:46:30;98744.13;;;4.96;100.00
81658;BME280;71057;51.436;6.768;2024-02-23T02:48:55;98743.31;;;4.96;100.00
81658;BME280;71057;51.436;6.768;2024-02-23T02:51:20;98761.22;;;4.95;100.00
81658;BME280;71057;51.436;6.768;2024-02-23T02:53:46;98748.91;;;4.94;100.00
81658;BME280;71057;51.436;6.768;2024-02-23T02:56:11;98745.09;;;4.90;100.00
81658;BME280;71057;51.436;6.768;2024-02-23T02:58:36;98746.69;;;4.91;100.00
81658;BME280;71057;51.436;6.768;2024-02-23T03:01:02;98741.41;;;4.79;100.00
81658;BME280;71057;51.436;6.768;2024-02-23T03:03:28;98746.06;;;4.84;100.00
81658;BME280;71057;51.436;6.768;2024-02-23T03:05:54;98757.22;;;4.81;100.00
81658;BME280;71057;51.436;6.768;2024-02-23T03:08:20;98748.94;;;4.82;100.00
81658;BME280;71057;51.436;6.768;2024-02-23T03:10:45;98748.63;;;4.79;100.00
81658;BME280;71057;51.436;6.768;2024-02-23T03:13:10;98757.13;;;4.76;100.00
81658;BME280;71057;51.436;6.768;2024-02-23T03:15:36;98761.31;;;4.72;100.00
81658;BME280;71057;51.436;6.768;2024-02-23T03:18:01;98759.13;;;4.69;100.00
81658;BME280;71057;51.436;6.768;2024-02-23T03:20:27;98782.44;;;4.73;100.00
81658;BME280;71057;51.436;6.768;2024-02-23T03:22:53;98795.91;;;4.78;100.00
81658;BME280;71057;51.436;6.768;2024-02-23T03:25:18;98766.63;;;4.83;100.00
81658;BME280;71057;51.436;6.768;2024-02-23T03:27:43;98756.00;;;4.88;100.00
81658;BME280;71057;51.436;6.768;2024-02-23T03:30:09;98762.41;;;4.87;100.00
81658;BME280;71057;51.436;6.768;2024-02-23T03:32:34;98773.09;;;4.87;100.00
81658;BME280;71057;51.436;6.768;2024-02-23T03:35:07;98779.59;;;4.92;100.00
81658;BME280;71057;51.436;6.768;2024-02-23T03:37:35;98799.03;;;4.87;100.00
81658;BME280;71057;51.436;6.768;2024-02-23T03:40:01;98777.66;;;4.87;100.00
81658;BME280;71057;51.436;6.768;2024-02-23T03:42:26;98775.59;;;4.77;100.00
81658;BME280;71057;51.436;6.768;2024-02-23T03:44:52;98780.13;;;4.77;100.00
81658;BME280;71057;51.436;6.768;2024-02-23T03:47:17;98780.00;;;4.72;100.00
81658;BME280;71057;51.436;6.768;2024-02-23T03:49:43;98799.41;;;4.79;100.00
81658;BME280;71057;51.436;6.768;2024-02-23T03:52:08;98785.91;;;4.85;100.00
81658;BME280;71057;51.436;6.768;2024-02-23T03:54:33;98785.19;;;4.90;100.00
81658;BME280;71057;51.436;6.768;2024-02-23T03:56:58;98797.09;;;4.99;100.00
81658;BME280;71057;51.436;6.768;2024-02-23T03:59:24;98778.16;;;5.01;100.00
81658;BME280;71057;51.436;6.768;2024-02-23T04:01:49;98786.16;;;5.01;100.00
81658;BME280;71057;51.436;6.768;2024-02-23T04:04:14;98802.81;;;5.03;100.00
81658;BME280;71057;51.436;6.768;2024-02-23T04:06:40;98792.91;;;5.03;100.00
81658;BME280;71057;51.436;6.768;2024-02-23T04:09:05;98802.81;;;5.03;100.00
81658;BME280;71057;51.436;6.768;2024-02-23T04:11:31;98801.50;;;5.05;100.00
81658;BME280;71057;51.436;6.768;2024-02-23T04:13:56;98802.81;;;5.03;100.00
81658;BME280;71057;51.436;6.768;2024-02-23T04:16:23;98806.59;;;5.07;100.00
81658;BME280;71057;51.436;6.768;2024-02-23T04:18:48;98803.31;;;5.16;100.00
81658;BME280;71057;51.436;6.768;2024-02-23T04:21:14;98816.28;;;5.25;100.00
81658;BME280;71057;51.436;6.768;2024-02-23T04:23:40;98804.53;;;5.26;100.00
81658;BME280;71057;51.436;6.768;2024-02-23T04:26:05;98801.38;;;5.29;100.00
81658;BME280;71057;51.436;6.768;2024-02-23T04:28:30;98810.81;;;5.31;100.00
81658;BME280;71057;51.436;6.768;2024-02-23T04:30:58;98794.16;;;5.29;100.00
81658;BME280;71057;51.436;6.768;2024-02-23T04:33:23;98803.81;;;5.30;100.00
81658;BME280;71057;51.436;6.768;2024-02-23T04:35:49;98810.47;;;5.28;100.00
81658;BME280;71057;51.436;6.768;2024-02-23T04:38:14;98816.63;;;5.28;100.00
81658;BME280;71057;51.436;6.768;2024-02-23T04:40:39;98819.03;;;5.30;100.00
81658;BME280;71057;51.436;6.768;2024-02-23T04:43:04;98840.94;;;5.27;100.00
81658;BME280;71057;51.436;6.768;2024-02-23T04:45:30;98830.72;;;5.24;100.00
81658;BME280;71057;51.436;6.768;2024-02-23T04:47:55;98835.72;;;5.20;100.00
81658;BME280;71057;51.436;6.768;2024-02-23T04:50:20;98844.66;;;5.26;100.00
81658;BME280;71057;51.436;6.768;2024-02-23T04:52:46;98841.50;;;5.29;100.00
81658;BME280;71057;51.436;6.768;2024-02-23T04:55:11;98859.75;;;5.32;100.00
81658;BME280;71057;51.436;6.768;2024-02-23T04:57:36;98843.72;;;5.32;100.00
81658;BME280;71057;51.436;6.768;2024-02-23T05:00:03;98833.00;;;5.32;100.00
81658;BME280;71057;51.436;6.768;2024-02-23T05:02:29;98838.19;;;5.38;100.00
81658;BME280;71057;51.436;6.768;2024-02-23T05:05:00;98852.63;;;5.37;100.00
81658;BME280;71057;51.436;6.768;2024-02-23T05:07:25;98838.44;;;5.37;100.00
81658;BME280;71057;51.436;6.768;2024-02-23T05:09:50;98845.16;;;5.39;100.00
81658;BME280;71057;51.436;6.768;2024-02-23T05:12:15;98848.44;;;5.41;100.00
81658;BME280;71057;51.436;6.768;2024-02-23T05:14:41;98840.16;;;5.43;100.00
81658;BME280;71057;51.436;6.768;2024-02-23T05:17:06;98841.09;;;5.37;100.00
81658;BME280;71057;51.436;6.768;2024-02-23T05:19:31;98842.28;;;5.41;100.00
81658;BME280;71057;51.436;6.768;2024-02-23T05:21:56;98840.16;;;5.43;100.00
81658;BME280;71057;51.436;6.768;2024-02-23T05:24:22;98848.75;;;5.45;100.00
81658;BME280;71057;51.436;6.768;2024-02-23T05:26:47;98851.91;;;5.42;100.00
81658;BME280;71057;51.436;6.768;2024-02-23T05:29:12;98845.25;;;5.44;100.00
81658;BME280;71057;51.436;6.768;2024-02-23T05:31:44;98855.22;;;5.49;100.00
81658;BME280;71057;51.436;6.768;2024-02-23T05:34:10;98855.16;;;5.44;100.00
81658;BME280;71057;51.436;6.768;2024-02-23T05:36:35;98866.56;;;5.39;100.00
81658;BME280;71057;51.436;6.768;2024-02-23T05:39:01;98860.41;;;5.39;100.00
81658;BME280;71057;51.436;6.768;2024-02-23T05:41:26;98852.78;;;5.48;100.00
81658;BME280;71057;51.436;6.768;2024-02-23T05:43:51;98862.22;;;5.50;100.00
81658;BME280;71057;51.436;6.768;2024-02-23T05:46:16;98854.09;;;5.45;100.00
81658;BME280;71057;51.436;6.768;2024-02-23T05:48:43;98836.91;;;5.41;100.00
81658;BME280;71057;51.436;6.768;2024-02-23T05:51:08;98857.66;;;5.34;100.00
81658;BME280;71057;51.436;6.768;2024-02-23T05:53:33;98854.41;;;5.32;100.00
81658;BME280;71057;51.436;6.768;2024-02-23T05:55:59;98853.00;;;5.29;100.00
81658;BME280;71057;51.436;6.768;2024-02-23T05:58:24;98861.38;;;5.33;100.00
81658;BME280;71057;51.436;6.768;2024-02-23T06:00:50;98871.59;;;5.36;100.00
81658;BME280;71057;51.436;6.768;2024-02-23T06:03:16;98870.16;;;5.45;100.00
81658;BME280;71057;51.436;6.768;2024-02-23T06:05:43;98854.19;;;5.50;100.00
81658;BME280;71057;51.436;6.768;2024-02-23T06:08:08;98867.91;;;5.54;100.00
81658;BME280;71057;51.436;6.768;2024-02-23T06:10:34;98866.03;;;5.54;100.00
81658;BME280;71057;51.436;6.768;2024-02-23T06:12:59;98859.63;;;5.55;100.00
81658;BME280;71057;51.436;6.768;2024-02-23T06:15:24;98871.47;;;5.59;100.00
81658;BME280;71057;51.436;6.768;2024-02-23T06:17:49;98856.56;;;5.63;100.00
81658;BME280;71057;51.436;6.768;2024-02-23T06:20:15;98864.03;;;5.61;100.00
81658;BME280;71057;51.436;6.768;2024-02-23T06:22:40;98858.19;;;5.64;100.00
81658;BME280;71057;51.436;6.768;2024-02-23T06:25:05;98864.03;;;5.61;100.00
81658;BME280;71057;51.436;6.768;2024-02-23T06:27:31;98861.75;;;5.70;100.00
81658;BME280;71057;51.436;6.768;2024-02-23T06:29:56;98856.06;;;5.66;100.00
81658;BME280;71057;51.436;6.768;2024-02-23T06:32:22;98853.94;;;5.68;100.00
81658;BME280;71057;51.436;6.768;2024-02-23T06:34:47;98856.63;;;5.68;100.00
81658;BME280;71057;51.436;6.768;2024-02-23T06:37:13;98851.47;;;5.79;100.00
81658;BME280;71057;51.436;6.768;2024-02-23T06:39:38;98840.66;;;5.73;100.00
81658;BME280;71057;51.436;6.768;2024-02-23T06:42:04;98843.25;;;5.68;100.00
81658;BME280;71057;51.436;6.768;2024-02-23T06:44:30;98839.84;;;5.73;100.00
81658;BME280;71057;51.436;6.768;2024-02-23T06:46:55;98832.72;;;5.79;100.00
81658;BME280;71057;51.436;6.768;2024-02-23T06:49:20;98832.88;;;5.72;100.00
81658;BME280;71057;51.436;6.768;2024-02-23T06:51:46;98826.56;;;5.61;100.00
81658;BME280;71057;51.436;6.768;2024-02-23T06:54:11;98832.38;;;5.58;100.00
81658;BME280;71057;51.436;6.768;2024-02-23T06:56:36;98830.91;;;5.67;100.00
81658;BME280;71057;51.436;6.768;2024-02-23T06:59:02;98825.34;;;5.69;100.00
81658;BME280;71057;51.436;6.768;2024-02-23T07:01:27;98820.81;;;5.69;100.00
81658;BME280;71057;51.436;6.768;2024-02-23T07:03:53;98844.00;;;5.81;100.00
81658;BME280;71057;51.436;6.768;2024-02-23T07:06:18;98830.63;;;5.81;100.00
81658;BME280;71057;51.436;6.768;2024-02-23T07:08:44;98836.84;;;5.86;100.00
81658;BME280;71057;51.436;6.768;2024-02-23T07:11:10;98834.03;;;5.93;100.00
81658;BME280;71057;51.436;6.768;2024-02-23T07:13:35;98840.19;;;5.93;100.00
81658;BME280;71057;51.436;6.768;2024-02-23T07:16:01;98838.69;;;5.97;100.00
81658;BME280;71057;51.436;6.768;2024-02-23T07:18:27;98827.53;;;6.06;100.00
81658;BME280;71057;51.436;6.768;2024-02-23T07:20:52;98835.34;;;6.07;100.00
81658;BME280;71057;51.436;6.768;2024-02-23T07:23:17;98817.22;;;6.14;100.00
81658;BME280;71057;51.436;6.768;2024-02-23T07:25:45;98818.91;;;6.20;100.00
81658;BME280;71057;51.436;6.768;2024-02-23T07:28:11;98820.03;;;6.24;100.00
81658;BME280;71057;51.436;6.768;2024-02-23T07:30:38;98814.63;;;6.19;100.00
81658;BME280;71057;51.436;6.768;2024-02-23T07:33:04;98826.44;;;6.23;100.00
81658;BME280;71057;51.436;6.768;2024-02-23T07:35:29;98822.22;;;6.27;100.00
81658;BME280;71057;51.436;6.768;2024-02-23T07:37:55;98833.00;;;6.33;100.00
81658;BME280;71057;51.436;6.768;2024-02-23T07:40:20;98825.72;;;6.28;100.00
81658;BME280;71057;51.436;6.768;2024-02-23T07:42:46;98820.38;;;6.28;100.00
81658;BME280;71057;51.436;6.768;2024-02-23T07:45:11;98819.34;;;6.34;100.00
81658;BME280;71057;51.436;6.768;2024-02-23T07:47:36;98828.28;;;6.40;100.00
81658;BME280;71057;51.436;6.768;2024-02-23T07:50:02;98842.38;;;6.52;100.00
81658;BME280;71057;51.436;6.768;2024-02-23T07:52:27;98829.31;;;6.55;100.00
81658;BME280;71057;51.436;6.768;2024-02-23T07:54:53;98845.66;;;6.54;100.00
81658;BME280;71057;51.436;6.768;2024-02-23T07:57:19;98846.38;;;6.71;100.00
81658;BME280;71057;51.436;6.768;2024-02-23T07:59:45;98844.41;;;6.83;100.00
81658;BME280;71057;51.436;6.768;2024-02-23T08:02:10;98843.53;;;6.78;100.00
81658;BME280;71057;51.436;6.768;2024-02-23T08:04:36;98840.84;;;6.78;100.00
81658;BME280;71057;51.436;6.768;2024-02-23T08:07:01;98827.84;;;6.92;100.00
81658;BME280;71057;51.436;6.768;2024-02-23T08:09:27;98842.22;;;7.02;100.00
81658;BME280;71057;51.436;6.768;2024-02-23T08:11:52;98838.47;;;6.81;100.00
81658;BME280;71057;51.436;6.768;2024-02-23T08:14:17;98843.22;;;6.74;100.00
81658;BME280;71057;51.436;6.768;2024-02-23T08:16:42;98851.25;;;6.74;100.00
81658;BME280;71057;51.436;6.768;2024-02-23T08:19:08;98855.81;;;6.74;100.00
81658;BME280;71057;51.436;6.768;2024-02-23T08:21:33;98841.59;;;6.73;100.00
81658;BME280;71057;51.436;6.768;2024-02-23T08:23:58;98839.28;;;6.60;100.00
81658;BME280;71057;51.436;6.768;2024-02-23T08:26:24;98836.03;;;6.58;100.00
81658;BME280;71057;51.436;6.768;2024-02-23T08:28:49;98843.78;;;6.54;100.00
81658;BME280;71057;51.436;6.768;2024-02-23T08:31:14;98834.72;;;6.61;100.00
81658;BME280;71057;51.436;6.768;2024-02-23T08:33:39;98825.63;;;6.62;100.00
81658;BME280;71057;51.436;6.768;2024-02-23T08:36:05;98838.84;;;6.68;100.00
81658;BME280;71057;51.436;6.768;2024-02-23T08:38:33;98827.69;;;6.76;100.00
81658;BME280;71057;51.436;6.768;2024-02-23T08:40:58;98829.41;;;6.87;100.00
81658;BME280;71057;51.436;6.768;2024-02-23T08:43:24;98835.78;;;6.81;100.00
81658;BME280;71057;51.436;6.768;2024-02-23T08:45:49;98835.72;;;6.98;100.00
81658;BME280;71057;51.436;6.768;2024-02-23T08:48:15;98850.47;;;7.01;100.00
81658;BME280;71057;51.436;6.768;2024-02-23T08:50:40;98827.41;;;7.00;100.00
81658;BME280;71057;51.436;6.768;2024-02-23T08:53:06;98838.91;;;6.95;100.00
81658;BME280;71057;51.436;6.768;2024-02-23T08:55:31;98832.78;;;7.00;100.00
81658;BME280;71057;51.436;6.768;2024-02-23T08:57:58;98844.81;;;6.97;100.00
81658;BME280;71057;51.436;6.768;2024-02-23T09:00:23;98845.28;;;7.16;100.00
81658;BME280;71057;51.436;6.768;2024-02-23T09:02:49;98847.13;;;7.37;100.00
81658;BME280;71057;51.436;6.768;2024-02-23T09:05:15;98847.13;;;7.37;100.00
81658;BME280;71057;51.436;6.768;2024-02-23T09:07:40;98835.53;;;7.59;100.00
81658;BME280;71057;51.436;6.768;2024-02-23T09:10:06;98848.56;;;7.77;100.00
81658;BME280;71057;51.436;6.768;2024-02-23T09:12:33;98852.19;;;7.93;100.00
81658;BME280;71057;51.436;6.768;2024-02-23T09:14:58;98856.81;;;8.02;100.00
81658;BME280;71057;51.436;6.768;2024-02-23T09:17:23;98851.69;;;7.96;100.00
81658;BME280;71057;51.436;6.768;2024-02-23T09:19:48;98851.63;;;7.91;100.00
81658;BME280;71057;51.436;6.768;2024-02-23T09:22:14;98829.28;;;7.85;100.00
81658;BME280;71057;51.436;6.768;2024-02-23T09:24:40;98845.84;;;7.72;100.00
81658;BME280;71057;51.436;6.768;2024-02-23T09:27:05;98842.72;;;7.85;100.00
81658;BME280;71057;51.436;6.768;2024-02-23T09:29:32;98850.78;;;7.85;100.00
81658;BME280;71057;51.436;6.768;2024-02-23T09:31:57;98842.75;;;7.90;100.00
81658;BME280;71057;51.436;6.768;2024-02-23T09:34:23;98864.25;;;7.90;100.00
81658;BME280;71057;51.436;6.768;2024-02-23T09:36:49;98857.44;;;7.78;100.00
81658;BME280;71057;51.436;6.768;2024-02-23T09:39:14;98857.19;;;7.79;100.00
81658;BME280;71057;51.436;6.768;2024-02-23T09:41:40;98854.06;;;7.92;100.00
81658;BME280;71057;51.436;6.768;2024-02-23T09:44:07;98861.31;;;7.92;100.00
81658;BME280;71057;51.436;6.768;2024-02-23T09:46:36;98872.16;;;7.75;100.00
81658;BME280;71057;51.436;6.768;2024-02-23T09:49:02;98861.13;;;7.71;100.00
81658;BME280;71057;51.436;6.768;2024-02-23T09:51:29;98862.56;;;7.79;100.00
81658;BME280;71057;51.436;6.768;2024-02-23T09:53:54;98860.97;;;7.83;100.00
81658;BME280;71057;51.436;6.768;2024-02-23T09:56:21;98866.13;;;7.90;100.00
81658;BME280;71057;51.436;6.768;2024-02-23T09:58:50;98863.53;;;8.00;100.00
81658;BME280;71057;51.436;6.768;2024-02-23T10:01:24;98864.63;;;8.04;100.00
81658;BME280;71057;51.436;6.768;2024-02-23T10:03:54;98862.00;;;8.14;100.00
81658;BME280;71057;51.436;6.768;2024-02-23T10:06:21;98863.72;;;8.25;100.00
81658;BME280;71057;51.436;6.768;2024-02-23T10:08:46;98860.22;;;8.25;100.00
81658;BME280;71057;51.436;6.768;2024-02-23T10:11:11;98867.31;;;8.41;100.00
81658;BME280;71057;51.436;6.768;2024-02-23T10:13:37;98875.44;;;8.46;100.00
81658;BME280;71057;51.436;6.768;2024-02-23T10:16:02;98864.13;;;8.44;100.00
81658;BME280;71057;51.436;6.768;2024-02-23T10:18:29;98862.91;;;8.30;100.00
81658;BME280;71057;51.436;6.768;2024-02-23T10:20:54;98872.06;;;8.29;100.00
81658;BME280;71057;51.436;6.768;2024-02-23T10:23:19;98859.94;;;8.26;100.00
81658;BME280;71057;51.436;6.768;2024-02-23T10:25:45;98868.22;;;8.20;100.00
81658;BME280;71057;51.436;6.768;2024-02-23T10:28:10;98862.03;;;8.19;100.00
81658;BME280;71057;51.436;6.768;2024-02-23T10:30:37;98872.59;;;8.31;100.00
81658;BME280;71057;51.436;6.768;2024-02-23T10:33:05;98874.16;;;8.22;100.00
81658;BME280;71057;51.436;6.768;2024-02-23T10:35:31;98864.34;;;8.38;100.00
81658;BME280;71057;51.436;6.768;2024-02-23T10:37:57;98874.88;;;8.44;100.00
81658;BME280;71057;51.436;6.768;2024-02-23T10:40:24;98874.69;;;8.56;100.00
81658;BME280;71057;51.436;6.768;2024-02-23T10:42:56;98860.13;;;8.52;100.00
81658;BME280;71057;51.436;6.768;2024-02-23T10:45:22;98866.97;;;8.32;100.00
81658;BME280;71057;51.436;6.768;2024-02-23T10:47:48;98886.03;;;8.26;100.00
81658;BME280;71057;51.436;6.768;2024-02-23T10:50:14;98886.81;;;8.26;100.00
81658;BME280;71057;51.436;6.768;2024-02-23T10:52:42;98888.13;;;8.19;100.00
81658;BME280;71057;51.436;6.768;2024-02-23T10:55:09;98884.63;;;8.23;100.00
81658;BME280;71057;51.436;6.768;2024-02-23T10:57:35;98887.25;;;8.45;100.00
81658;BME280;71057;51.436;6.768;2024-02-23T11:00:00;98900.50;;;8.62;100.00
81658;BME280;71057;51.436;6.768;2024-02-23T11:02:28;98898.94;;;8.71;100.00
81658;BME280;71057;51.436;6.768;2024-02-23T11:04:56;98890.09;;;8.76;100.00
81658;BME280;71057;51.436;6.768;2024-02-23T11:07:22;98884.38;;;8.62;100.00
81658;BME280;71057;51.436;6.768;2024-02-23T11:09:54;98890.00;;;8.61;100.00
81658;BME280;71057;51.436;6.768;2024-02-23T11:12:43;98888.97;;;8.67;100.00
81658;BME280;71057;51.436;6.768;2024-02-23T11:15:09;98883.03;;;8.59;100.00
81658;BME280;71057;51.436;6.768;2024-02-23T11:17:35;98882.78;;;8.66;100.00
81658;BME280;71057;51.436;6.768;2024-02-23T11:20:03;98889.47;;;8.58;100.00
81658;BME280;71057;51.436;6.768;2024-02-23T11:22:33;98873.50;;;8.42;100.00
81658;BME280;71057;51.436;6.768;2024-02-23T11:25:04;98886.66;;;8.38;100.00
81658;BME280;71057;51.436;6.768;2024-02-23T11:27:31;98889.34;;;8.38;100.00
81658;BME280;71057;51.436;6.768;2024-02-23T11:30:05;98874.28;;;8.37;100.00
81658;BME280;71057;51.436;6.768;2024-02-23T11:32:43;98887.00;;;8.52;100.00
81658;BME280;71057;51.436;6.768;2024-02-23T11:35:12;98891.50;;;8.41;100.00
81658;BME280;71057;51.436;6.768;2024-02-23T11:37:55;98892.31;;;8.42;100.00
81658;BME280;71057;51.436;6.768;2024-02-23T11:40:25;98891.00;;;8.44;100.00
81658;BME280;71057;51.436;6.768;2024-02-23T11:42:50;98875.94;;;8.43;100.00
81658;BME280;71057;51.436;6.768;2024-02-23T11:45:16;98888.88;;;8.46;100.00
81658;BME280;71057;51.436;6.768;2024-02-23T11:47:42;98906.03;;;8.40;100.00
81658;BME280;71057;51.436;6.768;2024-02-23T11:50:11;98889.91;;;8.40;100.00
81658;BME280;71057;51.436;6.768;2024-02-23T11:52:38;98888.06;;;8.46;100.00
81658;BME280;71057;51.436;6.768;2024-02-23T11:55:04;98893.16;;;8.47;100.00
81658;BME280;71057;51.436;6.768;2024-02-23T11:57:31;98901.25;;;8.47;100.00
81658;BME280;71057;51.436;6.768;2024-02-23T11:59:56;98898.34;;;8.54;100.00
81658;BME280;71057;51.436;6.768;2024-02-23T12:02:23;98899.63;;;8.46;100.00
81658;BME280;71057;51.436;6.768;2024-02-23T12:04:49;98885.22;;;8.68;100.00
81658;BME280;71057;51.436;6.768;2024-02-23T12:07:14;98883.16;;;8.90;100.00
81658;BME280;71057;51.436;6.768;2024-02-23T12:09:41;98891.59;;;9.09;100.00
81658;BME280;71057;51.436;6.768;2024-02-23T12:12:07;98900.41;;;8.94;100.00
81658;BME280;71057;51.436;6.768;2024-02-23T12:14:35;98880.13;;;8.71;100.00
81658;BME280;71057;51.436;6.768;2024-02-23T12:17:02;98887.03;;;8.57;100.00
81658;BME280;71057;51.436;6.768;2024-02-23T12:19:29;98885.97;;;8.21;100.00
81658;BME280;71057;51.436;6.768;2024-02-23T12:22:00;98874.69;;;8.19;100.00
81658;BME280;71057;51.436;6.768;2024-02-23T12:24:25;98892.94;;;8.17;100.00
81658;BME280;71057;51.436;6.768;2024-02-23T12:26:54;98880.38;;;8.27;100.00
81658;BME280;71057;51.436;6.768;2024-02-23T12:29:20;98881.00;;;8.35;100.00
81658;BME280;71057;51.436;6.768;2024-02-23T12:31:45;98899.28;;;8.38;100.00
81658;BME280;71057;51.436;6.768;2024-02-23T12:34:11;98876.72;;;8.39;100.00
81658;BME280;71057;51.436;6.768;2024-02-23T12:36:38;98881.88;;;8.50;100.00
81658;BME280;71057;51.436;6.768;2024-02-23T12:39:04;98889.19;;;8.55;100.00
81658;BME280;71057;51.436;6.768;2024-02-23T12:41:29;98884.59;;;8.50;100.00
81658;BME280;71057;51.436;6.768;2024-02-23T12:43:55;98876.88;;;8.64;100.00
81658;BME280;71057;51.436;6.768;2024-02-23T12:46:20;98895.41;;;8.61;100.00
81658;BME280;71057;51.436;6.768;2024-02-23T12:48:45;98900.38;;;8.84;100.00
81658;BME280;71057;51.436;6.768;2024-02-23T12:51:11;98896.94;;;8.99;100.00
81658;BME280;71057;51.436;6.768;2024-02-23T12:53:39;98891.28;;;8.95;100.00